Time;durP1;ratioP1;P1;durP2;ratioP2;P2;SDS_P1;SDS_P2;PMS_P1;PMS_P2;Temp;Humidity;BMP_temperature;BMP_pressure;BME280_temperature;BME280_humidity;BME280_pressure;Samples;Min_cycle;Max_cycle;Signal;HPM_P1;HPM_P2
2024/03/23 00:02:19;;;;;;;10.15;6.57;;;;;;;9.82;58.85;100057.44;5100511;28;20089;-63
2024/03/23 00:04:46;;;;;;;9.25;6.22;;;;;;;9.87;58.60;100054.34;5098501;28;20039;-64
2024/03/23 00:07:12;;;;;;;8.95;6.07;;;;;;;9.85;57.54;100053.66;5100475;28;20040;-64
2024/03/23 00:09:39;;;;;;;10.05;6.28;;;;;;;9.77;58.41;100051.75;5099112;28;20054;-63
2024/03/23 00:12:05;;;;;;;10.60;6.88;;;;;;;9.75;57.59;100055.53;5099980;28;20329;-66
2024/03/23 00:14:32;;;;;;;10.82;6.72;;;;;;;9.74;59.09;100051.22;5098354;28;20035;-63
2024/03/23 00:16:58;;;;;;;10.25;6.65;;;;;;;9.73;58.14;100045.09;5099702;28;20039;-64
2024/03/23 00:19:25;;;;;;;11.88;7.35;;;;;;;9.72;58.81;100043.44;5099349;28;20035;-64
2024/03/23 00:21:51;;;;;;;10.88;7.25;;;;;;;9.74;58.42;100045.94;5099661;28;20040;-63
2024/03/23 00:24:18;;;;;;;13.35;7.15;;;;;;;9.69;58.53;100050.84;5099321;28;20035;-65
2024/03/23 00:26:44;;;;;;;13.23;7.10;;;;;;;9.59;59.10;100043.78;5098812;28;20449;-66
2024/03/23 00:29:11;;;;;;;11.70;6.45;;;;;;;9.57;60.02;100042.28;5099191;28;20044;-64
2024/03/23 00:31:37;;;;;;;12.07;7.15;;;;;;;9.54;60.00;100042.59;5098747;28;20066;-63
2024/03/23 00:34:04;;;;;;;12.20;7.53;;;;;;;9.39;59.81;100050.19;5097989;28;20032;-64
2024/03/23 00:36:30;;;;;;;13.43;7.97;;;;;;;9.28;60.50;100043.25;5098107;28;20066;-64
2024/03/23 00:38:57;;;;;;;13.75;7.53;;;;;;;9.33;61.23;100047.25;5099305;28;20121;-64
2024/03/23 00:41:23;;;;;;;12.38;7.38;;;;;;;9.42;60.68;100049.03;5099372;28;20071;-64
2024/03/23 00:43:50;;;;;;;11.65;7.10;;;;;;;9.41;60.48;100047.38;5099879;28;20039;-65
2024/03/23 00:46:16;;;;;;;15.30;8.02;;;;;;;9.37;59.50;100046.00;5098236;28;20086;-63
2024/03/23 00:48:45;;;;;;;14.30;8.07;;;;;;;9.22;60.22;100054.41;5099994;28;20032;-63
2024/03/23 00:51:11;;;;;;;11.20;6.40;;;;;;;9.04;60.34;100052.66;5098010;28;20108;-64
2024/03/23 00:53:38;;;;;;;9.98;6.20;;;;;;;9.17;59.72;100056.66;5099367;28;20278;-65
2024/03/23 00:56:03;;;;;;;15.10;7.68;;;;;;;9.26;59.92;100050.47;5097240;28;20036;-66
2024/03/23 00:58:29;;;;;;;9.15;6.25;;;;;;;9.28;59.55;100048.53;5098878;28;20084;-63
2024/03/23 01:00:54;;;;;;;11.27;6.60;;;;;;;9.31;59.92;100047.41;5098349;28;20035;-64
2024/03/23 01:03:20;;;;;;;11.15;6.68;;;;;;;9.22;59.93;100048.28;5098636;28;20027;-64
2024/03/23 01:05:46;;;;;;;8.05;5.65;;;;;;;9.22;60.24;100053.56;5098537;28;20109;-64
2024/03/23 01:08:11;;;;;;;9.05;6.45;;;;;;;9.23;59.96;100050.78;5098710;28;20034;-64
2024/03/23 01:10:36;;;;;;;11.00;6.10;;;;;;;9.17;59.74;100051.34;5098063;28;20330;-63
2024/03/23 01:13:02;;;;;;;10.82;6.38;;;;;;;9.11;59.82;100044.00;5098049;28;20116;-66
2024/03/23 01:15:27;;;;;;;11.40;6.05;;;;;;;9.00;59.68;100048.66;5097684;28;20100;-63
2024/03/23 01:17:53;;;;;;;11.18;6.10;;;;;;;8.95;60.75;100046.44;5097269;28;20036;-64
2024/03/23 01:20:18;;;;;;;14.00;6.97;;;;;;;8.92;60.90;100044.91;5099009;28;20069;-63
2024/03/23 01:22:44;;;;;;;9.63;6.25;;;;;;;8.91;60.48;100043.25;5097070;28;20032;-66
2024/03/23 01:25:09;;;;;;;9.65;6.07;;;;;;;8.85;61.08;100046.47;5098811;28;20040;-65
2024/03/23 01:27:35;;;;;;;10.38;5.80;;;;;;;8.82;60.62;100048.56;5097320;28;20336;-63
2024/03/23 01:30:00;;;;;;;15.48;7.97;;;;;;;8.86;60.80;100050.78;5098858;28;20114;-63
2024/03/23 01:32:26;;;;;;;11.07;7.32;;;;;;;8.85;61.15;100049.13;5096993;28;20059;-64
2024/03/23 01:34:51;;;;;;;12.70;7.18;;;;;;;8.85;61.38;100043.84;5098080;28;20028;-65
2024/03/23 01:37:17;;;;;;;12.65;7.20;;;;;;;8.84;61.57;100044.81;5096399;28;20077;-65
2024/03/23 01:39:42;;;;;;;11.77;6.53;;;;;;;8.75;61.46;100037.75;5097594;28;20044;-63
2024/03/23 01:42:08;;;;;;;13.05;6.97;;;;;;;8.77;61.34;100038.44;5097371;28;20043;-63
2024/03/23 01:44:33;;;;;;;13.20;6.93;;;;;;;8.76;61.38;100043.84;5097294;28;20280;-63
2024/03/23 01:46:59;;;;;;;11.43;7.18;;;;;;;8.71;61.64;100033.72;5096949;28;20047;-63
2024/03/23 01:49:24;;;;;;;9.20;6.35;;;;;;;8.72;61.81;100043.31;5096721;28;20042;-63
2024/03/23 01:51:50;;;;;;;11.52;7.18;;;;;;;8.62;60.91;100045.97;5097742;28;20046;-63
2024/03/23 01:54:16;;;;;;;11.27;5.50;;;;;;;8.61;59.85;100038.19;5096876;28;20055;-66
2024/03/23 01:56:41;;;;;;;13.65;5.80;;;;;;;8.57;59.44;100036.81;5097979;28;20095;-65
2024/03/23 01:59:07;;;;;;;8.60;6.45;;;;;;;8.49;60.34;100042.81;5095715;28;20036;-64
2024/03/23 02:01:35;;;;;;;9.15;6.40;;;;;;;8.45;59.91;100043.22;5097943;28;20044;-63
2024/03/23 02:04:01;;;;;;;11.50;6.93;;;;;;;8.10;59.84;100044.56;5097211;28;20028;-63
2024/03/23 02:06:27;;;;;;;10.95;6.50;;;;;;;7.95;61.02;100033.59;5098191;28;20057;-65
2024/03/23 02:08:53;;;;;;;9.80;6.47;;;;;;;7.62;62.04;100034.00;5097105;28;20203;-63
2024/03/23 02:11:19;;;;;;;12.48;7.03;;;;;;;7.72;61.91;100040.09;5097265;28;20063;-63
2024/03/23 02:13:44;;;;;;;13.75;7.05;;;;;;;7.78;62.14;100036.94;5095801;28;20058;-63
2024/03/23 02:16:10;;;;;;;13.52;7.22;;;;;;;7.85;63.15;100035.41;5097571;28;20966;-64
2024/03/23 02:18:35;;;;;;;10.18;6.10;;;;;;;7.87;63.13;100032.63;5097245;28;20238;-65
2024/03/23 02:21:01;;;;;;;11.35;6.15;;;;;;;7.95;62.39;100030.13;5096116;28;20028;-63
2024/03/23 02:23:27;;;;;;;10.48;6.97;;;;;;;7.87;62.77;100001.00;5095697;28;20027;-64
2024/03/23 02:25:55;;;;;;;11.32;6.47;;;;;;;8.01;62.69;100032.22;5096991;28;20341;-64
2024/03/23 02:28:22;;;;;;;14.43;7.25;;;;;;;7.96;63.70;100037.91;5098209;28;20028;-63
2024/03/23 02:30:51;;;;;;;15.65;7.10;;;;;;;7.94;64.05;100034.59;5095612;28;20071;-63
2024/03/23 02:33:16;;;;;;;12.30;6.53;;;;;;;7.98;63.85;100038.59;5097918;28;20095;-64
2024/03/23 02:35:45;;;;;;;13.32;7.25;;;;;;;7.97;63.59;100034.31;5096116;28;20032;-65
2024/03/23 02:38:10;;;;;;;13.63;7.05;;;;;;;8.05;64.01;100038.88;5097139;28;20031;-64
2024/03/23 02:40:39;;;;;;;10.40;6.97;;;;;;;8.01;63.51;100040.13;5096048;28;20394;-63
2024/03/23 02:43:04;;;;;;;11.32;6.85;;;;;;;8.07;63.81;100036.09;5097197;28;20036;-63
2024/03/23 02:45:30;;;;;;;12.88;6.93;;;;;;;8.06;63.77;100030.00;5095955;28;20360;-66
2024/03/23 02:47:56;;;;;;;11.77;6.75;;;;;;;8.21;63.17;100035.69;5097493;28;20035;-67
2024/03/23 02:50:22;;;;;;;14.52;7.53;;;;;;;8.36;63.08;100039.63;5095661;28;20078;-65
2024/03/23 02:52:48;;;;;;;10.85;6.93;;;;;;;8.52;62.37;100041.69;5095965;28;20318;-64
2024/03/23 02:55:13;;;;;;;10.35;6.75;;;;;;;8.43;60.76;100035.44;5095954;28;20066;-64
2024/03/23 02:57:39;;;;;;;9.40;6.50;;;;;;;8.51;61.16;100035.56;5096631;28;20032;-66
2024/03/23 03:00:06;;;;;;;13.85;7.20;;;;;;;8.31;61.88;100044.44;5095080;28;20020;-66
2024/03/23 03:02:31;;;;;;;22.23;11.45;;;;;;;8.24;62.62;100038.88;5096031;28;20043;-63
2024/03/23 03:04:57;;;;;;;17.73;9.90;;;;;;;8.31;62.24;100039.97;5097340;28;20242;-64
2024/03/23 03:07:22;;;;;;;13.48;8.73;;;;;;;8.22;61.22;100040.00;5095834;28;20039;-63
2024/03/23 03:09:48;;;;;;;16.33;9.75;;;;;;;8.18;61.67;100041.25;5097686;28;20040;-64
2024/03/23 03:12:13;;;;;;;34.90;17.73;;;;;;;8.12;61.77;100037.34;5095210;28;20217;-65
2024/03/23 03:14:39;;;;;;;18.27;9.43;;;;;;;8.07;62.60;100030.84;5096927;28;20043;-64
2024/03/23 03:17:04;;;;;;;12.05;7.07;;;;;;;7.98;61.66;100035.13;5095182;28;20277;-63
2024/03/23 03:19:30;;;;;;;16.20;7.78;;;;;;;7.99;60.20;100032.34;5096873;28;20032;-63
2024/03/23 03:21:55;;;;;;;19.85;11.30;;;;;;;7.91;61.55;100026.94;5095576;28;20210;-63
2024/03/23 03:24:21;;;;;;;13.50;7.05;;;;;;;7.57;61.55;100037.03;5096315;28;20051;-63
2024/03/23 03:26:47;;;;;;;20.75;10.20;;;;;;;7.69;61.92;100035.09;5096191;28;20074;-66
2024/03/23 03:29:12;;;;;;;16.05;8.23;;;;;;;7.73;61.96;100033.88;5096392;28;20031;-65
2024/03/23 03:31:39;;;;;;;27.45;12.43;;;;;;;7.82;63.36;100034.84;5094655;28;20044;-64
2024/03/23 03:34:04;;;;;;;25.67;8.52;;;;;;;7.74;60.54;100040.81;5096562;28;20248;-64
2024/03/23 03:36:30;;;;;;;18.58;9.57;;;;;;;7.58;62.53;100041.34;5099978;28;20036;-63
2024/03/23 03:38:55;;;;;;;23.65;11.63;;;;;;;7.40;64.01;100045.59;5100379;28;20556;-66
2024/03/23 03:41:21;;;;;;;13.75;7.93;;;;;;;7.27;65.40;100045.78;5100640;28;20048;-65
2024/03/23 03:43:46;;;;;;;11.70;7.35;;;;;;;7.43;65.21;100039.22;5099392;28;20036;-64
2024/03/23 03:46:12;;;;;;;11.90;7.47;;;;;;;7.48;62.57;100050.19;5100744;28;20040;-63
2024/03/23 03:48:37;;;;;;;18.50;8.23;;;;;;;7.18;61.87;100051.88;5099199;28;20027;-63
2024/03/23 03:51:04;;;;;;;13.10;7.82;;;;;;;7.21;62.16;100048.13;5100677;28;20035;-65
2024/03/23 03:53:30;;;;;;;15.23;7.10;;;;;;;7.30;63.49;100053.47;5098965;28;20028;-66
2024/03/23 03:55:55;;;;;;;13.68;7.20;;;;;;;7.34;62.98;100060.13;5100326;28;20325;-63
2024/03/23 03:58:21;;;;;;;13.52;6.85;;;;;;;7.38;63.08;100057.22;5099958;28;20039;-64
2024/03/23 04:00:46;;;;;;;18.95;7.03;;;;;;;7.40;62.46;100057.94;5099321;28;20292;-64
2024/03/23 04:03:12;;;;;;;12.68;7.53;;;;;;;7.43;62.12;100061.13;5098827;28;20047;-63
2024/03/23 04:05:37;;;;;;;11.05;6.30;;;;;;;7.45;62.63;100053.91;5099461;28;20072;-64
2024/03/23 04:08:04;;;;;;;15.48;7.47;;;;;;;7.41;61.92;100062.22;5100331;28;20065;-64
2024/03/23 04:10:30;;;;;;;10.52;7.20;;;;;;;7.26;63.21;100067.84;5100069;28;20342;-66
2024/03/23 04:12:55;;;;;;;14.13;8.07;;;;;;;7.23;63.73;100072.53;5098642;28;20043;-65
2024/03/23 04:15:21;;;;;;;13.68;8.27;;;;;;;6.85;66.50;100066.13;5099512;28;20153;-63
2024/03/23 04:17:46;;;;;;;12.80;6.88;;;;;;;6.95;65.99;100066.16;5100440;28;20261;-64
2024/03/23 04:20:16;;;;;;;12.07;7.40;;;;;;;6.98;65.32;100068.53;5098970;28;20251;-63
2024/03/23 04:22:42;;;;;;;14.07;7.20;;;;;;;6.89;65.64;100075.44;5100061;28;20036;-65
2024/03/23 04:25:07;;;;;;;9.65;6.80;;;;;;;7.24;64.66;100072.41;5098364;28;20058;-64
2024/03/23 04:27:33;;;;;;;12.70;7.60;;;;;;;7.38;63.62;100073.03;5099343;28;20032;-63
2024/03/23 04:30:00;;;;;;;11.13;6.68;;;;;;;7.41;63.34;100068.34;5098724;28;20085;-63
2024/03/23 04:32:26;;;;;;;13.05;7.70;;;;;;;7.49;63.64;100072.94;5099537;28;20310;-63
2024/03/23 04:34:52;;;;;;;14.75;8.07;;;;;;;7.46;63.68;100073.19;5098908;28;20113;-64
2024/03/23 04:37:18;;;;;;;13.07;7.78;;;;;;;7.28;64.29;100073.84;5099504;28;20051;-64
2024/03/23 04:39:43;;;;;;;13.13;8.38;;;;;;;7.35;64.21;100077.59;5099408;28;20485;-65
2024/03/23 04:42:08;;;;;;;12.18;8.00;;;;;;;7.48;63.56;100082.63;5099219;28;20036;-63
2024/03/23 04:44:34;;;;;;;14.32;8.63;;;;;;;7.58;63.36;100083.50;5099530;28;20901;-62
2024/03/23 04:47:01;;;;;;;16.55;8.10;;;;;;;7.63;63.23;100093.63;5097908;28;20039;-63
2024/03/23 04:49:26;;;;;;;13.70;7.55;;;;;;;7.52;62.83;100083.19;5099621;28;20055;-64
2024/03/23 04:51:52;;;;;;;14.95;9.02;;;;;;;7.47;62.65;100083.59;5098718;28;20048;-65
2024/03/23 04:54:17;;;;;;;21.60;11.00;;;;;;;7.27;63.86;100081.84;5098017;28;20065;-65
2024/03/23 04:56:43;;;;;;;17.00;10.60;;;;;;;7.27;63.94;100072.13;5097819;28;20113;-64
2024/03/23 04:59:08;;;;;;;19.63;10.00;;;;;;;7.39;63.46;100075.53;5098912;28;20327;-64
2024/03/23 05:01:34;;;;;;;13.73;8.55;;;;;;;7.43;63.72;100076.94;5096382;28;20284;-64
2024/03/23 05:04:00;;;;;;;14.00;9.55;;;;;;;7.58;63.15;100086.13;5098980;28;20040;-64
2024/03/23 05:06:26;;;;;;;14.15;8.35;;;;;;;7.29;64.58;100082.56;5098453;28;20055;-63
2024/03/23 05:08:51;;;;;;;12.05;8.07;;;;;;;7.38;63.94;100087.03;5097412;28;20594;-64
2024/03/23 05:11:17;;;;;;;12.60;7.88;;;;;;;7.35;64.01;100084.69;5097149;28;20046;-64
2024/03/23 05:13:44;;;;;;;16.80;8.45;;;;;;;7.34;64.54;100085.63;5097784;28;20071;-66
2024/03/23 05:16:09;;;;;;;9.63;7.07;;;;;;;7.50;64.19;100083.34;5098422;28;20301;-66
2024/03/23 05:18:35;;;;;;;11.32;7.15;;;;;;;7.50;63.49;100078.06;5098673;28;20032;-64
2024/03/23 05:21:01;;;;;;;14.45;7.70;;;;;;;7.22;64.92;100079.59;5098527;28;20241;-64
2024/03/23 05:23:28;;;;;;;10.45;7.35;;;;;;;7.50;64.31;100072.78;5097264;28;20028;-64
2024/03/23 05:25:54;;;;;;;13.93;7.47;;;;;;;7.28;64.47;100071.19;5098965;28;20230;-64
2024/03/23 05:28:20;;;;;;;16.70;8.52;;;;;;;7.37;64.29;100074.84;5097788;28;20050;-67
2024/03/23 05:30:56;;;;;;;15.10;7.53;;;;;;;7.46;64.64;100081.94;5097791;28;20118;-64
2024/03/23 05:33:22;;;;;;;13.35;8.02;;;;;;;7.27;64.70;100080.03;5097052;28;20028;-64
2024/03/23 05:35:59;;;;;;;13.77;8.43;;;;;;;7.49;64.34;100076.41;5098721;28;20323;-64
2024/03/23 05:38:24;;;;;;;14.57;7.72;;;;;;;7.59;63.77;100081.69;5097760;28;20055;-64
2024/03/23 05:41:08;;;;;;;14.02;8.48;;;;;;;7.83;63.56;100083.97;5097986;28;20036;-64
2024/03/23 05:43:33;;;;;;;11.48;7.32;;;;;;;7.97;62.61;100076.50;5095583;28;20060;-64
2024/03/23 05:46:00;;;;;;;12.70;7.97;;;;;;;8.23;61.63;100076.78;5097694;28;20036;-65
2024/03/23 05:48:26;;;;;;;18.33;10.40;;;;;;;8.36;61.58;100075.72;5097337;28;20270;-67
2024/03/23 05:50:52;;;;;;;10.10;7.97;;;;;;;8.52;60.74;100078.63;5097173;28;20036;-63
2024/03/23 05:53:20;;;;;;;19.65;11.82;;;;;;;8.64;60.07;100069.59;5097605;28;20078;-62
2024/03/23 05:55:47;;;;;;;12.30;9.52;;;;;;;8.83;59.68;100077.47;5097723;28;20085;-62
2024/03/23 05:58:14;;;;;;;36.20;9.35;;;;;;;9.19;59.13;100078.47;5096937;28;20063;-63
2024/03/23 06:00:40;;;;;;;11.63;7.60;;;;;;;9.46;57.60;100072.41;5096919;28;20142;-63
2024/03/23 06:03:05;;;;;;;11.93;7.10;;;;;;;9.61;56.69;100075.38;5094877;28;20039;-63
2024/03/23 06:05:31;;;;;;;15.15;6.57;;;;;;;9.91;56.29;100072.41;5096509;28;20363;-62
2024/03/23 06:07:56;;;;;;;10.63;6.18;;;;;;;10.04;54.46;100074.69;5098064;28;20051;-63
2024/03/23 06:10:23;;;;;;;11.40;6.45;;;;;;;10.23;54.19;100068.44;5097143;28;20036;-62
2024/03/23 06:12:49;;;;;;;10.43;7.10;;;;;;;10.27;53.71;100072.44;5097253;28;20095;-62
2024/03/23 06:15:14;;;;;;;9.45;6.15;;;;;;;10.37;53.38;100064.41;5096004;28;20060;-64
2024/03/23 06:17:40;;;;;;;10.45;6.22;;;;;;;10.59;53.50;100073.72;5097547;28;20069;-64
2024/03/23 06:20:06;;;;;;;10.35;6.95;;;;;;;10.76;52.34;100070.19;5096351;28;20243;-63
2024/03/23 06:22:32;;;;;;;9.70;6.50;;;;;;;10.73;51.53;100076.66;5097578;28;20052;-63
2024/03/23 06:24:57;;;;;;;25.63;12.40;;;;;;;10.67;51.48;100069.31;5096996;28;20201;-63
2024/03/23 06:27:23;;;;;;;11.55;7.18;;;;;;;11.00;52.52;100069.53;5096688;28;20111;-63
2024/03/23 06:29:48;;;;;;;11.48;7.03;;;;;;;11.24;50.97;100066.16;5095677;28;20755;-63
2024/03/23 06:32:14;;;;;;;11.93;7.15;;;;;;;11.27;49.89;100069.34;5096098;28;20334;-64
2024/03/23 06:34:41;;;;;;;15.07;7.97;;;;;;;11.33;50.41;100067.88;5096719;28;20078;-63
2024/03/23 06:37:09;;;;;;;10.65;6.72;;;;;;;11.50;50.24;100073.13;5096761;28;20048;-63
2024/03/23 06:39:35;;;;;;;14.52;8.00;;;;;;;11.69;49.32;100072.03;5097106;28;20233;-62
2024/03/23 06:42:01;;;;;;;11.70;7.63;;;;;;;11.94;49.21;100064.97;5096145;28;20028;-62
2024/03/23 06:44:26;;;;;;;11.20;7.20;;;;;;;12.03;49.15;100063.19;5097723;28;20262;-62
2024/03/23 06:46:53;;;;;;;12.05;7.75;;;;;;;12.03;48.58;100071.13;5095770;28;20119;-63
2024/03/23 06:49:18;;;;;;;14.35;8.70;;;;;;;11.96;48.88;100065.66;5097558;28;20032;-62
2024/03/23 06:51:45;;;;;;;13.95;7.55;;;;;;;12.14;48.93;100069.00;5095295;28;20330;-63
2024/03/23 06:54:11;;;;;;;12.40;7.40;;;;;;;12.42;48.05;100064.19;5096596;28;20043;-65
2024/03/23 06:56:37;;;;;;;17.58;8.15;;;;;;;12.72;47.50;100065.38;5096234;28;20321;-66
2024/03/23 06:59:02;;;;;;;12.95;8.85;;;;;;;12.70;47.93;100063.88;5096788;28;20036;-64
2024/03/23 07:01:31;;;;;;;15.20;8.35;;;;;;;12.85;47.31;100064.84;5095943;28;20043;-63
2024/03/23 07:03:56;;;;;;;11.02;7.93;;;;;;;13.09;46.99;100059.47;5095804;28;20035;-65
2024/03/23 07:06:22;;;;;;;14.10;8.88;;;;;;;13.33;46.44;100055.94;5096055;28;20046;-64
2024/03/23 07:08:47;;;;;;;12.18;8.13;;;;;;;13.49;46.39;100057.69;5095087;28;20044;-63
2024/03/23 07:11:21;;;;;;;13.98;8.50;;;;;;;13.30;46.62;100061.59;5097035;28;20046;-63
2024/03/23 07:13:50;;;;;;;13.52;8.23;;;;;;;13.52;45.94;100051.22;5096178;28;20070;-64
2024/03/23 07:16:16;;;;;;;13.20;7.88;;;;;;;13.67;45.73;100049.50;5096676;28;20038;-63
2024/03/23 07:18:42;;;;;;;14.38;8.30;;;;;;;13.78;45.89;100046.44;5094032;28;20043;-63
2024/03/23 07:21:07;;;;;;;14.80;8.60;;;;;;;13.82;45.79;100045.09;5096550;28;20036;-63
2024/03/23 07:23:34;;;;;;;13.85;8.73;;;;;;;13.97;46.52;100047.81;5095288;28;20028;-67
2024/03/23 07:26:00;;;;;;;12.75;7.75;;;;;;;14.19;45.37;100041.66;5096200;28;20043;-66
2024/03/23 07:28:27;;;;;;;13.60;8.55;;;;;;;14.04;45.39;100044.28;5095714;28;20036;-64
2024/03/23 07:31:08;;;;;;;13.25;9.15;;;;;;;14.07;45.76;100041.25;5096055;28;20032;-65
2024/03/23 07:33:35;;;;;;;12.07;8.00;;;;;;;14.42;44.56;100031.03;5095471;28;20298;-64
2024/03/23 07:36:02;;;;;;;13.40;8.30;;;;;;;14.56;44.96;100034.75;5095920;28;20154;-65
2024/03/23 07:38:28;;;;;;;14.15;8.35;;;;;;;14.80;44.33;100031.88;5096240;28;20043;-65
2024/03/23 07:41:09;;;;;;;12.65;8.35;;;;;;;14.85;44.94;100020.66;5096292;28;20035;-64
2024/03/23 07:43:38;;;;;;;11.77;8.25;;;;;;;14.96;44.67;100018.38;5094289;28;20371;-64
2024/03/23 07:46:04;;;;;;;14.18;8.30;;;;;;;14.88;44.58;100017.63;5095083;28;20036;-66
2024/03/23 07:48:30;;;;;;;13.15;8.70;;;;;;;14.98;44.42;100013.69;5095671;28;20066;-66
2024/03/23 07:51:07;;;;;;;12.63;8.77;;;;;;;15.04;44.46;100021.94;5095218;28;20356;-64
2024/03/23 07:53:33;;;;;;;16.45;9.00;;;;;;;15.04;43.86;100013.94;5095727;28;20218;-65
2024/03/23 07:56:02;;;;;;;15.95;8.05;;;;;;;15.15;43.27;100021.47;5095694;28;20103;-65
2024/03/23 07:58:28;;;;;;;12.60;8.00;;;;;;;15.30;43.91;100019.63;5111481;28;20078;-66
2024/03/23 08:01:05;;;;;;;13.35;8.32;;;;;;;15.29;43.50;100017.97;5095402;28;20373;-66
2024/03/23 08:03:30;;;;;;;13.48;8.52;;;;;;;15.32;43.24;100006.94;5096202;28;20083;-64
2024/03/23 08:05:56;;;;;;;12.25;7.70;;;;;;;15.38;42.97;100008.84;5095745;28;20528;-64
2024/03/23 08:08:21;;;;;;;11.13;8.00;;;;;;;15.48;41.32;100004.06;5096444;28;20039;-66
2024/03/23 08:10:51;;;;;;;13.05;8.68;;;;;;;15.04;42.01;100005.94;5094911;28;20357;-66
2024/03/23 08:13:17;;;;;;;11.70;7.90;;;;;;;15.16;43.30;100001.81;5096566;28;20036;-70
2024/03/23 08:15:43;;;;;;;10.05;7.47;;;;;;;15.18;42.81;99997.94;5092951;28;20036;-65
2024/03/23 08:18:10;;;;;;;10.48;8.23;;;;;;;15.18;41.83;99999.78;5095524;28;20130;-65
2024/03/23 08:20:36;;;;;;;11.40;8.07;;;;;;;15.36;42.23;99986.88;5095691;28;20252;-64
2024/03/23 08:23:01;;;;;;;14.68;8.43;;;;;;;15.36;41.55;99988.72;5099327;28;20059;-65
2024/03/23 08:25:27;;;;;;;11.02;7.10;;;;;;;15.48;41.43;99990.72;5099516;28;20055;-66
2024/03/23 08:27:52;;;;;;;13.45;7.30;;;;;;;15.55;42.37;99982.78;5098405;28;20242;-65
2024/03/23 08:30:18;;;;;;;14.35;7.95;;;;;;;15.45;42.24;99979.59;5098466;28;20040;-65
2024/03/23 08:32:44;;;;;;;9.10;6.90;;;;;;;15.44;41.36;99980.59;5097618;28;20039;-65
2024/03/23 08:35:09;;;;;;;10.55;6.85;;;;;;;15.47;42.96;99967.72;5098351;28;20040;-64
2024/03/23 08:37:35;;;;;;;8.68;6.30;;;;;;;15.62;42.21;99973.88;5098495;28;20039;-65
2024/03/23 08:40:00;;;;;;;9.70;6.78;;;;;;;15.70;40.93;99974.78;5098868;28;20048;-66
2024/03/23 08:42:26;;;;;;;9.05;6.22;;;;;;;15.65;40.35;99978.03;5098274;28;20069;-64
2024/03/23 08:44:51;;;;;;;21.65;8.35;;;;;;;15.69;40.84;99965.94;5098702;28;20044;-64
2024/03/23 08:47:17;;;;;;;9.40;5.88;;;;;;;15.65;41.27;99964.69;5098091;28;20039;-65
2024/03/23 08:49:44;;;;;;;8.27;5.63;;;;;;;15.57;40.86;99957.59;5098945;28;20310;-65
2024/03/23 08:52:09;;;;;;;9.40;5.85;;;;;;;15.54;41.96;99960.59;5097283;28;20046;-65
2024/03/23 08:54:34;;;;;;;9.50;6.13;;;;;;;15.36;42.81;99957.53;5099060;28;20028;-64
2024/03/23 08:57:00;;;;;;;7.55;5.93;;;;;;;15.18;40.62;99965.94;5098015;28;20318;-64
2024/03/23 08:59:26;;;;;;;10.73;6.30;;;;;;;14.87;41.74;99951.97;5098377;28;20099;-64
2024/03/23 09:01:52;;;;;;;8.70;6.45;;;;;;;15.04;42.97;99958.78;5095898;28;20090;-66
2024/03/23 09:04:17;;;;;;;7.38;5.70;;;;;;;15.06;43.47;99950.59;5097598;28;20322;-64
2024/03/23 09:06:43;;;;;;;12.35;6.40;;;;;;;15.01;44.22;99945.81;5097602;28;20109;-63
2024/03/23 09:09:09;;;;;;;9.52;6.18;;;;;;;14.71;45.04;99937.00;5097838;28;20036;-64
2024/03/23 09:11:34;;;;;;;9.38;5.90;;;;;;;14.63;43.68;99940.59;5097804;28;20040;-64
2024/03/23 09:13:59;;;;;;;7.95;5.72;;;;;;;14.29;42.56;99935.72;5097688;28;20029;-66
2024/03/23 09:16:25;;;;;;;7.28;5.13;;;;;;;14.42;42.98;99926.28;5097984;28;20050;-65
2024/03/23 09:18:52;;;;;;;8.90;4.50;;;;;;;14.56;40.30;99922.81;5096898;28;20036;-64
2024/03/23 09:21:17;;;;;;;7.10;5.07;;;;;;;14.91;41.50;99923.94;5097852;28;20039;-64
2024/03/23 09:23:46;;;;;;;10.40;5.88;;;;;;;14.94;41.57;99915.56;5096396;28;20203;-64
2024/03/23 09:26:12;;;;;;;8.43;5.50;;;;;;;15.00;42.73;99920.16;5099110;28;20062;-64
2024/03/23 09:28:37;;;;;;;8.07;5.90;;;;;;;15.15;41.75;99907.63;5097140;28;20504;-66
2024/03/23 09:31:04;;;;;;;11.70;5.93;;;;;;;15.38;41.84;99896.78;5097460;28;20221;-64
2024/03/23 09:33:30;;;;;;;11.32;6.07;;;;;;;15.52;42.46;99892.41;5094655;28;20379;-64
2024/03/23 09:35:56;;;;;;;8.52;5.65;;;;;;;15.55;40.62;99892.84;5097327;28;20028;-64
2024/03/23 09:38:22;;;;;;;8.98;5.70;;;;;;;15.39;42.12;99889.63;5096535;28;20047;-64
2024/03/23 09:40:52;;;;;;;6.03;4.80;;;;;;;15.18;40.83;99896.56;5096969;28;20087;-64
2024/03/23 09:43:19;;;;;;;7.82;4.97;;;;;;;15.17;41.29;99884.25;5096112;28;20378;-64
2024/03/23 09:45:45;;;;;;;7.07;4.20;;;;;;;15.02;39.55;99886.13;5096562;28;20086;-64
2024/03/23 09:48:11;;;;;;;6.72;4.10;;;;;;;15.05;39.14;99885.75;5096893;28;20032;-64
2024/03/23 09:50:40;;;;;;;5.15;4.43;;;;;;;14.99;38.83;99875.84;5096353;28;20070;-66
2024/03/23 09:53:13;;;;;;;7.50;4.00;;;;;;;14.82;38.77;99847.75;5095564;28;20051;-66
2024/03/23 09:55:41;;;;;;;4.80;3.72;;;;;;;15.08;38.57;99861.38;5096796;28;20284;-64
2024/03/23 09:58:06;;;;;;;6.30;4.28;;;;;;;15.18;39.13;99858.41;5097937;28;20036;-64
2024/03/23 10:00:35;;;;;;;8.27;3.72;;;;;;;15.21;38.93;99850.84;5096080;28;20233;-64
2024/03/23 10:03:02;;;;;;;6.18;4.00;;;;;;;15.28;38.84;99857.09;5097328;28;20040;-66
2024/03/23 10:05:28;;;;;;;5.88;4.15;;;;;;;15.23;39.55;99845.31;5095386;28;20044;-66
2024/03/23 10:07:54;;;;;;;6.78;4.25;;;;;;;15.15;41.86;99848.94;5097244;28;20036;-64
2024/03/23 10:10:21;;;;;;;7.13;4.88;;;;;;;15.11;40.90;99842.34;5096034;28;20405;-64
2024/03/23 10:12:50;;;;;;;7.85;4.63;;;;;;;15.18;40.63;99840.56;5097273;28;20024;-64
2024/03/23 10:15:23;;;;;;;9.68;4.70;;;;;;;15.25;40.93;99829.97;5094320;28;20435;-64
2024/03/23 10:17:48;;;;;;;6.38;4.55;;;;;;;15.29;39.88;99829.38;5096735;28;20328;-64
2024/03/23 10:20:23;;;;;;;7.80;4.63;;;;;;;15.32;40.20;99831.69;5096432;28;20103;-64
2024/03/23 10:22:52;;;;;;;7.85;4.38;;;;;;;14.97;40.38;99816.53;5096455;28;20024;-64
2024/03/23 10:25:22;;;;;;;5.50;4.00;;;;;;;15.11;38.85;99817.50;5096283;28;20075;-66
2024/03/23 10:27:59;;;;;;;6.32;4.18;;;;;;;14.99;39.68;99814.50;5096371;28;20046;-66
2024/03/23 10:30:27;;;;;;;7.53;4.57;;;;;;;14.82;40.53;99813.91;5095948;28;20039;-64
2024/03/23 10:33:07;;;;;;;7.32;4.82;;;;;;;14.99;41.23;99798.50;5096836;28;20035;-64
2024/03/23 10:35:32;;;;;;;7.65;4.90;;;;;;;15.19;40.54;99796.03;5094679;28;20032;-63
2024/03/23 10:37:58;;;;;;;6.35;4.43;;;;;;;15.32;39.70;99791.66;5095309;28;20246;-63
2024/03/23 10:40:24;;;;;;;9.38;5.13;;;;;;;15.42;39.18;99780.66;5094014;28;20048;-63
2024/03/23 10:42:52;;;;;;;19.70;5.88;;;;;;;15.44;40.44;99778.63;5094706;28;20222;-65
2024/03/23 10:45:17;;;;;;;7.32;5.05;;;;;;;15.55;39.00;99779.94;5093891;28;20254;-64
2024/03/23 10:47:43;;;;;;;11.43;5.40;;;;;;;15.71;38.17;99771.72;5094678;28;20104;-64
2024/03/23 10:50:09;;;;;;;5.13;4.10;;;;;;;15.65;39.30;99775.16;5095648;28;20036;-64
2024/03/23 10:52:35;;;;;;;7.50;4.47;;;;;;;15.66;38.27;99766.13;5093495;28;20268;-64
2024/03/23 10:55:04;;;;;;;8.27;4.75;;;;;;;15.69;38.53;99760.41;5095608;28;20054;-64
2024/03/23 10:57:37;;;;;;;7.05;4.75;;;;;;;15.56;38.19;99758.41;5091980;28;20036;-64
2024/03/23 11:00:04;;;;;;;5.90;4.55;;;;;;;15.59;38.68;99759.88;5096249;28;20039;-66
2024/03/23 11:02:29;;;;;;;7.90;4.80;;;;;;;15.52;38.45;99748.31;5093598;28;20111;-65
2024/03/23 11:04:55;;;;;;;9.85;4.80;;;;;;;15.76;37.63;99745.25;5092978;28;20040;-64
2024/03/23 11:07:23;;;;;;;7.68;5.00;;;;;;;15.57;38.50;99740.53;5093660;28;20074;-63
2024/03/23 11:09:50;;;;;;;7.72;4.70;;;;;;;15.51;38.12;99728.81;5095402;28;20045;-64
2024/03/23 11:12:25;;;;;;;7.25;4.85;;;;;;;15.49;38.05;99728.16;5095383;28;20323;-64
2024/03/23 11:14:54;;;;;;;6.63;4.63;;;;;;;15.63;37.52;99726.47;5096873;28;20032;-64
2024/03/23 11:17:24;;;;;;;9.00;4.97;;;;;;;15.77;37.52;99722.88;5096154;28;20504;-65
2024/03/23 11:20:00;;;;;;;7.25;4.30;;;;;;;15.95;36.47;99709.00;5095516;28;20099;-64
2024/03/23 11:22:37;;;;;;;6.43;4.32;;;;;;;16.07;37.82;99704.75;5096240;28;20120;-67
2024/03/23 11:25:03;;;;;;;5.38;4.00;;;;;;;15.74;36.90;99704.59;5097332;28;20368;-64